sensor_id;sensor_type;location;lat;lon;timestamp;temperature;humidity
52034;DHT22;38045;52.988;6.536;2023-05-10T00:01:07;12.70;99.90
52034;DHT22;38045;52.988;6.536;2023-05-10T00:03:33;12.70;99.90
52034;DHT22;38045;52.988;6.536;2023-05-10T00:05:58;12.70;99.90
52034;DHT22;38045;52.988;6.536;2023-05-10T00:08:24;12.70;99.90
52034;DHT22;38045;52.988;6.536;2023-05-10T00:10:50;12.70;99.90
52034;DHT22;38045;52.988;6.536;2023-05-10T00:13:15;12.70;99.90
52034;DHT22;38045;52.988;6.536;2023-05-10T00:15:41;12.70;99.90
52034;DHT22;38045;52.988;6.536;2023-05-10T00:18:07;12.70;99.90
52034;DHT22;38045;52.988;6.536;2023-05-10T00:20:32;12.70;99.90
52034;DHT22;38045;52.988;6.536;2023-05-10T00:22:58;12.70;99.90
52034;DHT22;38045;52.988;6.536;2023-05-10T00:25:24;12.70;99.90
52034;DHT22;38045;52.988;6.536;2023-05-10T00:27:50;12.70;99.90
52034;DHT22;38045;52.988;6.536;2023-05-10T00:30:16;12.70;99.90
52034;DHT22;38045;52.988;6.536;2023-05-10T00:32:41;12.70;99.90
52034;DHT22;38045;52.988;6.536;2023-05-10T00:35:09;12.80;99.90
52034;DHT22;38045;52.988;6.536;2023-05-10T00:37:34;12.70;99.90
52034;DHT22;38045;52.988;6.536;2023-05-10T00:40:00;12.70;99.90
52034;DHT22;38045;52.988;6.536;2023-05-10T00:42:26;12.70;99.90
52034;DHT22;38045;52.988;6.536;2023-05-10T00:44:51;12.70;99.90
52034;DHT22;38045;52.988;6.536;2023-05-10T00:47:17;12.70;99.90
52034;DHT22;38045;52.988;6.536;2023-05-10T00:49:43;12.70;99.90
52034;DHT22;38045;52.988;6.536;2023-05-10T00:52:10;12.70;99.90
52034;DHT22;38045;52.988;6.536;2023-05-10T00:54:35;12.70;99.90
52034;DHT22;38045;52.988;6.536;2023-05-10T00:57:01;12.70;99.90
52034;DHT22;38045;52.988;6.536;2023-05-10T00:59:28;12.70;99.90
52034;DHT22;38045;52.988;6.536;2023-05-10T01:01:53;12.70;99.90
52034;DHT22;38045;52.988;6.536;2023-05-10T01:04:19;12.80;99.90
52034;DHT22;38045;52.988;6.536;2023-05-10T01:06:51;12.70;99.90
52034;DHT22;38045;52.988;6.536;2023-05-10T01:09:17;12.70;99.90
52034;DHT22;38045;52.988;6.536;2023-05-10T01:11:43;12.70;99.90
52034;DHT22;38045;52.988;6.536;2023-05-10T01:14:09;12.70;99.90
52034;DHT22;38045;52.988;6.536;2023-05-10T01:16:38;12.70;99.90
52034;DHT22;38045;52.988;6.536;2023-05-10T01:19:19;12.70;99.90
52034;DHT22;38045;52.988;6.536;2023-05-10T01:21:53;12.70;99.90
52034;DHT22;38045;52.988;6.536;2023-05-10T01:27:25;12.60;99.90
52034;DHT22;38045;52.988;6.536;2023-05-10T01:33:17;12.60;99.90
52034;DHT22;38045;52.988;6.536;2023-05-10T01:38:50;12.60;99.90
52034;DHT22;38045;52.988;6.536;2023-05-10T01:44:15;12.60;99.90
52034;DHT22;38045;52.988;6.536;2023-05-10T01:46:42;12.60;99.90
52034;DHT22;38045;52.988;6.536;2023-05-10T01:49:24;12.60;99.90
52034;DHT22;38045;52.988;6.536;2023-05-10T01:51:53;12.60;99.90
52034;DHT22;38045;52.988;6.536;2023-05-10T01:54:21;12.60;99.90
52034;DHT22;38045;52.988;6.536;2023-05-10T01:56:55;12.60;99.90
52034;DHT22;38045;52.988;6.536;2023-05-10T01:59:30;12.60;99.90
52034;DHT22;38045;52.988;6.536;2023-05-10T02:01:58;12.60;99.90
52034;DHT22;38045;52.988;6.536;2023-05-10T02:04:25;12.60;99.90
52034;DHT22;38045;52.988;6.536;2023-05-10T02:06:53;12.60;99.90
52034;DHT22;38045;52.988;6.536;2023-05-10T02:09:20;12.50;99.90
52034;DHT22;38045;52.988;6.536;2023-05-10T02:11:48;12.60;99.90
52034;DHT22;38045;52.988;6.536;2023-05-10T02:14:15;12.50;99.90
52034;DHT22;38045;52.988;6.536;2023-05-10T02:16:43;12.50;99.90
52034;DHT22;38045;52.988;6.536;2023-05-10T02:19:10;12.50;99.90
52034;DHT22;38045;52.988;6.536;2023-05-10T02:21:39;12.50;99.90
52034;DHT22;38045;52.988;6.536;2023-05-10T02:24:05;12.50;99.90
52034;DHT22;38045;52.988;6.536;2023-05-10T02:26:32;12.50;99.90
52034;DHT22;38045;52.988;6.536;2023-05-10T02:29:01;12.50;99.90
52034;DHT22;38045;52.988;6.536;2023-05-10T02:31:30;12.70;99.90
52034;DHT22;38045;52.988;6.536;2023-05-10T02:33:57;12.50;99.90
52034;DHT22;38045;52.988;6.536;2023-05-10T02:36:23;12.50;99.90
52034;DHT22;38045;52.988;6.536;2023-05-10T02:38:51;12.50;99.90
52034;DHT22;38045;52.988;6.536;2023-05-10T02:41:20;12.50;99.90
52034;DHT22;38045;52.988;6.536;2023-05-10T02:43:50;12.50;99.90
52034;DHT22;38045;52.988;6.536;2023-05-10T02:46:16;12.50;99.90
52034;DHT22;38045;52.988;6.536;2023-05-10T02:48:42;12.50;99.90
52034;DHT22;38045;52.988;6.536;2023-05-10T02:51:08;12.50;99.90
52034;DHT22;38045;52.988;6.536;2023-05-10T02:53:36;12.50;99.90
52034;DHT22;38045;52.988;6.536;2023-05-10T02:56:13;12.50;99.90
52034;DHT22;38045;52.988;6.536;2023-05-10T02:58:39;12.40;99.90
52034;DHT22;38045;52.988;6.536;2023-05-10T03:01:05;12.50;99.90
52034;DHT22;38045;52.988;6.536;2023-05-10T03:03:33;12.50;99.90
52034;DHT22;38045;52.988;6.536;2023-05-10T03:05:58;12.40;99.90
52034;DHT22;38045;52.988;6.536;2023-05-10T03:08:24;12.40;99.90
52034;DHT22;38045;52.988;6.536;2023-05-10T03:13:38;12.40;99.90
52034;DHT22;38045;52.988;6.536;2023-05-10T03:16:17;12.40;99.90
52034;DHT22;38045;52.988;6.536;2023-05-10T03:19:05;12.40;99.90
52034;DHT22;38045;52.988;6.536;2023-05-10T03:21:32;12.40;99.90
52034;DHT22;38045;52.988;6.536;2023-05-10T03:24:08;12.40;99.90
52034;DHT22;38045;52.988;6.536;2023-05-10T03:26:34;12.40;99.90
52034;DHT22;38045;52.988;6.536;2023-05-10T03:29:02;12.40;99.90
52034;DHT22;38045;52.988;6.536;2023-05-10T03:31:28;12.40;99.90
52034;DHT22;38045;52.988;6.536;2023-05-10T03:33:54;12.40;99.90
52034;DHT22;38045;52.988;6.536;2023-05-10T03:36:19;12.40;99.90
52034;DHT22;38045;52.988;6.536;2023-05-10T03:38:45;12.40;99.90
52034;DHT22;38045;52.988;6.536;2023-05-10T03:41:11;12.30;99.90
52034;DHT22;38045;52.988;6.536;2023-05-10T03:43:36;12.30;99.90
52034;DHT22;38045;52.988;6.536;2023-05-10T03:46:05;12.30;99.90
52034;DHT22;38045;52.988;6.536;2023-05-10T03:48:32;12.30;99.90
52034;DHT22;38045;52.988;6.536;2023-05-10T03:50:57;12.30;99.90
52034;DHT22;38045;52.988;6.536;2023-05-10T03:53:23;12.30;99.90
52034;DHT22;38045;52.988;6.536;2023-05-10T03:55:49;12.30;99.90
52034;DHT22;38045;52.988;6.536;2023-05-10T03:58:14;12.30;99.90
52034;DHT22;38045;52.988;6.536;2023-05-10T04:00:40;12.30;99.90
52034;DHT22;38045;52.988;6.536;2023-05-10T04:03:11;12.30;99.90
52034;DHT22;38045;52.988;6.536;2023-05-10T04:05:36;12.30;99.90
52034;DHT22;38045;52.988;6.536;2023-05-10T04:08:03;12.20;99.90
52034;DHT22;38045;52.988;6.536;2023-05-10T04:10:29;12.20;99.90
52034;DHT22;38045;52.988;6.536;2023-05-10T04:12:54;12.20;99.90
52034;DHT22;38045;52.988;6.536;2023-05-10T04:15:20;12.20;99.90
52034;DHT22;38045;52.988;6.536;2023-05-10T04:17:46;12.20;99.90
52034;DHT22;38045;52.988;6.536;2023-05-10T04:20:12;12.20;99.90
52034;DHT22;38045;52.988;6.536;2023-05-10T04:22:38;12.30;99.90
52034;DHT22;38045;52.988;6.536;2023-05-10T04:25:04;12.30;99.90
52034;DHT22;38045;52.988;6.536;2023-05-10T04:27:30;12.30;99.90
52034;DHT22;38045;52.988;6.536;2023-05-10T04:29:56;12.30;99.90
52034;DHT22;38045;52.988;6.536;2023-05-10T04:32:22;12.30;99.90
52034;DHT22;38045;52.988;6.536;2023-05-10T04:34:47;12.30;99.90
52034;DHT22;38045;52.988;6.536;2023-05-10T04:37:13;12.30;99.90
52034;DHT22;38045;52.988;6.536;2023-05-10T04:39:38;12.20;99.90
52034;DHT22;38045;52.988;6.536;2023-05-10T04:42:04;12.20;99.90
52034;DHT22;38045;52.988;6.536;2023-05-10T04:44:31;12.20;99.90
52034;DHT22;38045;52.988;6.536;2023-05-10T04:46:57;12.20;99.90
52034;DHT22;38045;52.988;6.536;2023-05-10T04:49:22;12.20;99.90
52034;DHT22;38045;52.988;6.536;2023-05-10T04:51:48;12.20;99.90
52034;DHT22;38045;52.988;6.536;2023-05-10T04:54:14;12.30;99.90
52034;DHT22;38045;52.988;6.536;2023-05-10T04:56:39;12.30;99.90
52034;DHT22;38045;52.988;6.536;2023-05-10T04:59:06;12.30;99.90
52034;DHT22;38045;52.988;6.536;2023-05-10T05:01:32;12.30;99.90
52034;DHT22;38045;52.988;6.536;2023-05-10T05:03:58;12.30;99.90
52034;DHT22;38045;52.988;6.536;2023-05-10T05:06:23;12.30;99.90
52034;DHT22;38045;52.988;6.536;2023-05-10T05:08:50;12.20;99.90
52034;DHT22;38045;52.988;6.536;2023-05-10T05:11:16;12.30;99.90
52034;DHT22;38045;52.988;6.536;2023-05-10T05:13:42;12.30;99.90
52034;DHT22;38045;52.988;6.536;2023-05-10T05:16:07;12.30;99.90
52034;DHT22;38045;52.988;6.536;2023-05-10T05:18:33;12.30;99.90
52034;DHT22;38045;52.988;6.536;2023-05-10T05:20:58;12.30;99.90
52034;DHT22;38045;52.988;6.536;2023-05-10T05:23:24;12.30;99.90
52034;DHT22;38045;52.988;6.536;2023-05-10T05:25:52;12.30;99.90
52034;DHT22;38045;52.988;6.536;2023-05-10T05:28:18;12.30;99.90
52034;DHT22;38045;52.988;6.536;2023-05-10T05:30:43;12.30;99.90
52034;DHT22;38045;52.988;6.536;2023-05-10T05:33:09;12.30;99.90
52034;DHT22;38045;52.988;6.536;2023-05-10T05:35:35;12.30;99.90
52034;DHT22;38045;52.988;6.536;2023-05-10T05:38:00;12.30;99.90
52034;DHT22;38045;52.988;6.536;2023-05-10T05:40:26;12.30;99.90
52034;DHT22;38045;52.988;6.536;2023-05-10T05:42:51;12.30;99.90
52034;DHT22;38045;52.988;6.536;2023-05-10T05:45:17;12.30;99.90
52034;DHT22;38045;52.988;6.536;2023-05-10T05:47:43;12.30;99.90
52034;DHT22;38045;52.988;6.536;2023-05-10T05:50:09;12.30;99.90
52034;DHT22;38045;52.988;6.536;2023-05-10T05:52:35;12.30;99.90
52034;DHT22;38045;52.988;6.536;2023-05-10T05:55:01;12.30;99.90
52034;DHT22;38045;52.988;6.536;2023-05-10T05:57:27;12.30;99.90
52034;DHT22;38045;52.988;6.536;2023-05-10T05:59:52;12.30;99.90
52034;DHT22;38045;52.988;6.536;2023-05-10T06:02:18;12.30;99.90
52034;DHT22;38045;52.988;6.536;2023-05-10T06:04:43;13.20;99.90
52034;DHT22;38045;52.988;6.536;2023-05-10T06:07:09;12.40;99.90
52034;DHT22;38045;52.988;6.536;2023-05-10T06:09:35;12.30;99.90
52034;DHT22;38045;52.988;6.536;2023-05-10T06:12:00;12.30;99.90
52034;DHT22;38045;52.988;6.536;2023-05-10T06:14:27;12.30;99.90
52034;DHT22;38045;52.988;6.536;2023-05-10T06:16:52;12.30;99.90
52034;DHT22;38045;52.988;6.536;2023-05-10T06:19:18;12.30;99.90
52034;DHT22;38045;52.988;6.536;2023-05-10T06:21:44;12.30;99.90
52034;DHT22;38045;52.988;6.536;2023-05-10T06:24:09;12.30;99.90
52034;DHT22;38045;52.988;6.536;2023-05-10T06:26:36;12.30;99.90
52034;DHT22;38045;52.988;6.536;2023-05-10T06:29:01;12.30;99.90
52034;DHT22;38045;52.988;6.536;2023-05-10T06:31:27;12.30;99.90
52034;DHT22;38045;52.988;6.536;2023-05-10T06:33:53;12.40;99.90
52034;DHT22;38045;52.988;6.536;2023-05-10T06:36:19;12.40;99.90
52034;DHT22;38045;52.988;6.536;2023-05-10T06:38:44;12.50;99.90
52034;DHT22;38045;52.988;6.536;2023-05-10T06:41:10;12.40;99.90
52034;DHT22;38045;52.988;6.536;2023-05-10T06:43:36;12.50;99.90
52034;DHT22;38045;52.988;6.536;2023-05-10T06:46:05;12.50;99.90
52034;DHT22;38045;52.988;6.536;2023-05-10T06:48:30;12.50;99.90
52034;DHT22;38045;52.988;6.536;2023-05-10T06:50:56;12.50;99.90
52034;DHT22;38045;52.988;6.536;2023-05-10T06:53:22;12.50;99.90
52034;DHT22;38045;52.988;6.536;2023-05-10T06:55:49;12.50;99.90
52034;DHT22;38045;52.988;6.536;2023-05-10T06:58:14;12.60;99.90
52034;DHT22;38045;52.988;6.536;2023-05-10T07:00:40;12.60;99.90
52034;DHT22;38045;52.988;6.536;2023-05-10T07:03:09;12.60;99.90
52034;DHT22;38045;52.988;6.536;2023-05-10T07:05:36;12.60;99.90
52034;DHT22;38045;52.988;6.536;2023-05-10T07:08:01;12.50;99.90
52034;DHT22;38045;52.988;6.536;2023-05-10T07:10:27;12.60;99.90
52034;DHT22;38045;52.988;6.536;2023-05-10T07:12:53;12.60;99.90
52034;DHT22;38045;52.988;6.536;2023-05-10T07:15:18;12.60;99.90
52034;DHT22;38045;52.988;6.536;2023-05-10T07:17:44;12.60;99.90
52034;DHT22;38045;52.988;6.536;2023-05-10T07:20:11;12.70;99.90
52034;DHT22;38045;52.988;6.536;2023-05-10T07:22:36;12.70;99.90
52034;DHT22;38045;52.988;6.536;2023-05-10T07:25:02;12.70;99.90
52034;DHT22;38045;52.988;6.536;2023-05-10T07:27:27;12.70;99.90
52034;DHT22;38045;52.988;6.536;2023-05-10T07:29:53;12.70;99.90
52034;DHT22;38045;52.988;6.536;2023-05-10T07:32:20;12.70;99.90
52034;DHT22;38045;52.988;6.536;2023-05-10T07:34:45;12.80;99.90
52034;DHT22;38045;52.988;6.536;2023-05-10T07:37:11;12.80;99.90
52034;DHT22;38045;52.988;6.536;2023-05-10T07:39:37;12.80;99.90
52034;DHT22;38045;52.988;6.536;2023-05-10T07:42:03;12.80;99.90
52034;DHT22;38045;52.988;6.536;2023-05-10T07:44:29;12.70;99.90
52034;DHT22;38045;52.988;6.536;2023-05-10T07:46:54;12.80;99.90
52034;DHT22;38045;52.988;6.536;2023-05-10T07:49:21;12.80;99.90
52034;DHT22;38045;52.988;6.536;2023-05-10T07:51:46;12.70;99.90
52034;DHT22;38045;52.988;6.536;2023-05-10T07:54:14;12.80;99.90
52034;DHT22;38045;52.988;6.536;2023-05-10T07:56:39;12.80;99.90
52034;DHT22;38045;52.988;6.536;2023-05-10T07:59:10;12.80;99.90
52034;DHT22;38045;52.988;6.536;2023-05-10T08:01:35;12.90;99.90
52034;DHT22;38045;52.988;6.536;2023-05-10T08:04:01;12.80;99.90
52034;DHT22;38045;52.988;6.536;2023-05-10T08:06:27;12.80;99.90
52034;DHT22;38045;52.988;6.536;2023-05-10T08:08:55;12.70;99.90
52034;DHT22;38045;52.988;6.536;2023-05-10T08:11:21;12.70;99.90
52034;DHT22;38045;52.988;6.536;2023-05-10T08:13:49;12.70;99.90
52034;DHT22;38045;52.988;6.536;2023-05-10T08:16:15;12.70;99.90
52034;DHT22;38045;52.988;6.536;2023-05-10T08:18:43;12.70;99.90
52034;DHT22;38045;52.988;6.536;2023-05-10T08:21:08;12.70;99.90
52034;DHT22;38045;52.988;6.536;2023-05-10T08:23:36;12.70;99.90
52034;DHT22;38045;52.988;6.536;2023-05-10T08:26:01;12.70;99.90
52034;DHT22;38045;52.988;6.536;2023-05-10T08:28:27;12.70;99.90
52034;DHT22;38045;52.988;6.536;2023-05-10T08:30:53;12.70;99.90
52034;DHT22;38045;52.988;6.536;2023-05-10T08:33:19;12.70;99.90
52034;DHT22;38045;52.988;6.536;2023-05-10T08:35:44;12.70;99.90
52034;DHT22;38045;52.988;6.536;2023-05-10T08:38:10;12.70;99.90
52034;DHT22;38045;52.988;6.536;2023-05-10T08:40:37;12.60;99.90
52034;DHT22;38045;52.988;6.536;2023-05-10T08:43:07;12.60;99.90
52034;DHT22;38045;52.988;6.536;2023-05-10T08:45:37;12.70;99.90
52034;DHT22;38045;52.988;6.536;2023-05-10T08:48:05;12.70;99.90
52034;DHT22;38045;52.988;6.536;2023-05-10T08:50:31;12.70;99.90
52034;DHT22;38045;52.988;6.536;2023-05-10T08:53:00;12.70;99.90
52034;DHT22;38045;52.988;6.536;2023-05-10T08:55:26;12.80;99.90
52034;DHT22;38045;52.988;6.536;2023-05-10T08:57:53;12.90;99.90
52034;DHT22;38045;52.988;6.536;2023-05-10T09:00:19;13.00;99.90
52034;DHT22;38045;52.988;6.536;2023-05-10T09:02:45;13.10;99.90
52034;DHT22;38045;52.988;6.536;2023-05-10T09:05:13;13.10;99.90
52034;DHT22;38045;52.988;6.536;2023-05-10T09:07:41;13.10;99.90
52034;DHT22;38045;52.988;6.536;2023-05-10T09:10:08;13.00;99.90
52034;DHT22;38045;52.988;6.536;2023-05-10T09:12:35;13.10;99.90
52034;DHT22;38045;52.988;6.536;2023-05-10T09:15:01;13.20;99.90
52034;DHT22;38045;52.988;6.536;2023-05-10T09:17:27;13.20;99.90
52034;DHT22;38045;52.988;6.536;2023-05-10T09:20:02;13.20;99.90
52034;DHT22;38045;52.988;6.536;2023-05-10T09:22:28;13.30;99.90
52034;DHT22;38045;52.988;6.536;2023-05-10T09:25:14;13.30;99.90
52034;DHT22;38045;52.988;6.536;2023-05-10T09:27:44;13.30;99.90
52034;DHT22;38045;52.988;6.536;2023-05-10T09:30:11;13.30;99.90
52034;DHT22;38045;52.988;6.536;2023-05-10T09:32:45;13.20;99.90
52034;DHT22;38045;52.988;6.536;2023-05-10T09:35:16;13.10;99.90
52034;DHT22;38045;52.988;6.536;2023-05-10T09:37:44;13.10;99.90
52034;DHT22;38045;52.988;6.536;2023-05-10T09:40:13;13.20;99.90
52034;DHT22;38045;52.988;6.536;2023-05-10T09:42:39;13.20;99.90
52034;DHT22;38045;52.988;6.536;2023-05-10T09:45:06;13.30;99.90
52034;DHT22;38045;52.988;6.536;2023-05-10T09:47:33;13.40;99.90
52034;DHT22;38045;52.988;6.536;2023-05-10T09:50:00;13.50;99.90
52034;DHT22;38045;52.988;6.536;2023-05-10T09:52:51;13.50;99.90
52034;DHT22;38045;52.988;6.536;2023-05-10T09:55:22;13.50;99.90
52034;DHT22;38045;52.988;6.536;2023-05-10T09:57:49;13.40;99.90
52034;DHT22;38045;52.988;6.536;2023-05-10T10:00:23;13.30;99.90
52034;DHT22;38045;52.988;6.536;2023-05-10T10:02:56;13.30;99.90
52034;DHT22;38045;52.988;6.536;2023-05-10T10:05:34;13.30;99.90
52034;DHT22;38045;52.988;6.536;2023-05-10T10:08:03;13.30;99.90
52034;DHT22;38045;52.988;6.536;2023-05-10T10:10:29;13.30;99.90
52034;DHT22;38045;52.988;6.536;2023-05-10T10:12:56;13.30;99.90
52034;DHT22;38045;52.988;6.536;2023-05-10T10:15:22;13.40;99.90
52034;DHT22;38045;52.988;6.536;2023-05-10T10:17:49;13.50;99.90
52034;DHT22;38045;52.988;6.536;2023-05-10T10:20:15;13.60;99.90
52034;DHT22;38045;52.988;6.536;2023-05-10T10:22:41;13.70;99.90
52034;DHT22;38045;52.988;6.536;2023-05-10T10:25:10;13.80;99.90
52034;DHT22;38045;52.988;6.536;2023-05-10T10:30:27;13.90;99.90
52034;DHT22;38045;52.988;6.536;2023-05-10T10:35:59;14.20;99.90
52034;DHT22;38045;52.988;6.536;2023-05-10T10:38:25;14.40;99.90
52034;DHT22;38045;52.988;6.536;2023-05-10T10:41:10;14.50;99.90
52034;DHT22;38045;52.988;6.536;2023-05-10T10:43:36;14.50;99.90
52034;DHT22;38045;52.988;6.536;2023-05-10T10:46:11;14.50;99.90
52034;DHT22;38045;52.988;6.536;2023-05-10T10:49:10;14.40;99.90
52034;DHT22;38045;52.988;6.536;2023-05-10T10:51:39;14.30;99.90
52034;DHT22;38045;52.988;6.536;2023-05-10T10:54:11;14.30;99.90
52034;DHT22;38045;52.988;6.536;2023-05-10T10:56:37;14.30;99.90
52034;DHT22;38045;52.988;6.536;2023-05-10T10:59:03;14.30;99.90
52034;DHT22;38045;52.988;6.536;2023-05-10T11:01:33;14.30;99.90
52034;DHT22;38045;52.988;6.536;2023-05-10T11:06:32;14.30;99.90
52034;DHT22;38045;52.988;6.536;2023-05-10T11:09:05;14.40;99.90
52034;DHT22;38045;52.988;6.536;2023-05-10T11:11:31;14.50;99.90
52034;DHT22;38045;52.988;6.536;2023-05-10T11:14:03;14.60;99.90
52034;DHT22;38045;52.988;6.536;2023-05-10T11:16:44;14.60;99.90
52034;DHT22;38045;52.988;6.536;2023-05-10T11:19:14;14.70;99.90
52034;DHT22;38045;52.988;6.536;2023-05-10T11:21:48;14.80;99.90
52034;DHT22;38045;52.988;6.536;2023-05-10T11:24:22;14.80;99.90
52034;DHT22;38045;52.988;6.536;2023-05-10T11:26:51;14.90;99.90
52034;DHT22;38045;52.988;6.536;2023-05-10T11:29:17;14.80;99.90
52034;DHT22;38045;52.988;6.536;2023-05-10T11:31:44;14.80;99.90
52034;DHT22;38045;52.988;6.536;2023-05-10T11:34:10;14.60;99.90
52034;DHT22;38045;52.988;6.536;2023-05-10T11:36:36;14.50;99.90
52034;DHT22;38045;52.988;6.536;2023-05-10T11:39:03;14.50;99.90
52034;DHT22;38045;52.988;6.536;2023-05-10T11:41:30;14.40;99.90
52034;DHT22;38045;52.988;6.536;2023-05-10T11:43:56;14.30;99.90
52034;DHT22;38045;52.988;6.536;2023-05-10T11:46:24;14.30;99.90
52034;DHT22;38045;52.988;6.536;2023-05-10T11:48:52;14.20;99.90
52034;DHT22;38045;52.988;6.536;2023-05-10T11:51:22;14.20;99.90
52034;DHT22;38045;52.988;6.536;2023-05-10T11:53:49;14.20;99.90
52034;DHT22;38045;52.988;6.536;2023-05-10T11:56:15;14.20;99.90
52034;DHT22;38045;52.988;6.536;2023-05-10T11:58:41;14.10;99.90
52034;DHT22;38045;52.988;6.536;2023-05-10T12:01:07;14.10;99.90
52034;DHT22;38045;52.988;6.536;2023-05-10T12:03:34;14.10;99.90
52034;DHT22;38045;52.988;6.536;2023-05-10T12:06:01;14.20;99.90
52034;DHT22;38045;52.988;6.536;2023-05-10T12:08:28;14.20;99.90
52034;DHT22;38045;52.988;6.536;2023-05-10T12:11:06;14.30;99.90
52034;DHT22;38045;52.988;6.536;2023-05-10T12:13:32;14.30;99.90
52034;DHT22;38045;52.988;6.536;2023-05-10T12:15:58;14.40;99.90
52034;DHT22;38045;52.988;6.536;2023-05-10T12:18:24;14.50;99.90
52034;DHT22;38045;52.988;6.536;2023-05-10T12:20:52;14.70;99.90
52034;DHT22;38045;52.988;6.536;2023-05-10T12:23:20;14.70;99.90
52034;DHT22;38045;52.988;6.536;2023-05-10T12:25:45;14.70;99.90
52034;DHT22;38045;52.988;6.536;2023-05-10T12:28:11;14.60;99.90
52034;DHT22;38045;52.988;6.536;2023-05-10T12:30:37;14.70;99.90
52034;DHT22;38045;52.988;6.536;2023-05-10T12:33:10;14.70;99.90
52034;DHT22;38045;52.988;6.536;2023-05-10T12:35:53;14.70;99.90
52034;DHT22;38045;52.988;6.536;2023-05-10T12:38:36;14.70;99.90
52034;DHT22;38045;52.988;6.536;2023-05-10T12:41:06;15.00;99.90
52034;DHT22;38045;52.988;6.536;2023-05-10T12:43:32;15.00;99.90
52034;DHT22;38045;52.988;6.536;2023-05-10T12:45:58;15.00;99.90
52034;DHT22;38045;52.988;6.536;2023-05-10T12:48:24;15.10;99.90
52034;DHT22;38045;52.988;6.536;2023-05-10T12:50:49;15.10;99.90
52034;DHT22;38045;52.988;6.536;2023-05-10T12:53:16;15.20;99.90
52034;DHT22;38045;52.988;6.536;2023-05-10T12:55:42;15.20;99.90
52034;DHT22;38045;52.988;6.536;2023-05-10T12:58:08;15.10;99.90
52034;DHT22;38045;52.988;6.536;2023-05-10T13:00:34;15.10;99.90
52034;DHT22;38045;52.988;6.536;2023-05-10T13:02:59;15.00;99.90
52034;DHT22;38045;52.988;6.536;2023-05-10T13:05:25;14.90;99.90
52034;DHT22;38045;52.988;6.536;2023-05-10T13:07:51;14.80;99.90
52034;DHT22;38045;52.988;6.536;2023-05-10T13:10:16;14.80;99.90
52034;DHT22;38045;52.988;6.536;2023-05-10T13:12:42;14.70;99.90
52034;DHT22;38045;52.988;6.536;2023-05-10T13:15:08;14.60;99.90
52034;DHT22;38045;52.988;6.536;2023-05-10T13:17:33;14.60;99.90
52034;DHT22;38045;52.988;6.536;2023-05-10T13:19:59;14.60;99.90
52034;DHT22;38045;52.988;6.536;2023-05-10T13:22:25;14.60;99.90
52034;DHT22;38045;52.988;6.536;2023-05-10T13:24:50;14.70;99.90
52034;DHT22;38045;52.988;6.536;2023-05-10T13:27:16;14.80;99.90
52034;DHT22;38045;52.988;6.536;2023-05-10T13:29:41;14.90;99.90
52034;DHT22;38045;52.988;6.536;2023-05-10T13:32:07;15.00;99.90
52034;DHT22;38045;52.988;6.536;2023-05-10T13:34:33;15.10;99.90
52034;DHT22;38045;52.988;6.536;2023-05-10T13:36:58;15.20;99.90
52034;DHT22;38045;52.988;6.536;2023-05-10T13:39:24;15.20;99.90
52034;DHT22;38045;52.988;6.536;2023-05-10T13:41:49;15.30;99.90
52034;DHT22;38045;52.988;6.536;2023-05-10T13:44:15;15.30;99.90
52034;DHT22;38045;52.988;6.536;2023-05-10T13:46:41;15.30;99.90
52034;DHT22;38045;52.988;6.536;2023-05-10T13:49:08;15.30;99.90
52034;DHT22;38045;52.988;6.536;2023-05-10T13:51:34;15.40;99.90
52034;DHT22;38045;52.988;6.536;2023-05-10T13:54:01;15.40;99.90
52034;DHT22;38045;52.988;6.536;2023-05-10T13:56:27;15.50;99.90
52034;DHT22;38045;52.988;6.536;2023-05-10T13:58:53;15.60;99.90
52034;DHT22;38045;52.988;6.536;2023-05-10T14:01:18;15.60;99.90
52034;DHT22;38045;52.988;6.536;2023-05-10T14:03:44;15.60;99.90
52034;DHT22;38045;52.988;6.536;2023-05-10T14:06:09;15.60;99.90
52034;DHT22;38045;52.988;6.536;2023-05-10T14:08:35;15.60;99.90
52034;DHT22;38045;52.988;6.536;2023-05-10T14:11:02;15.50;99.90
52034;DHT22;38045;52.988;6.536;2023-05-10T14:13:27;15.50;99.90
52034;DHT22;38045;52.988;6.536;2023-05-10T14:15:54;15.40;99.90
52034;DHT22;38045;52.988;6.536;2023-05-10T14:18:19;15.40;99.90
52034;DHT22;38045;52.988;6.536;2023-05-10T14:20:45;15.30;99.90
52034;DHT22;38045;52.988;6.536;2023-05-10T14:23:11;15.10;99.90
52034;DHT22;38045;52.988;6.536;2023-05-10T14:25:39;15.10;99.90
52034;DHT22;38045;52.988;6.536;2023-05-10T14:28:05;15.10;99.90
52034;DHT22;38045;52.988;6.536;2023-05-10T14:30:31;15.10;99.90
52034;DHT22;38045;52.988;6.536;2023-05-10T14:32:57;15.10;99.90
52034;DHT22;38045;52.988;6.536;2023-05-10T14:35:23;15.10;99.90
52034;DHT22;38045;52.988;6.536;2023-05-10T14:37:49;15.20;99.90
52034;DHT22;38045;52.988;6.536;2023-05-10T14:40:15;15.30;99.90
52034;DHT22;38045;52.988;6.536;2023-05-10T14:42:42;15.30;99.90
52034;DHT22;38045;52.988;6.536;2023-05-10T14:45:08;15.30;99.90
52034;DHT22;38045;52.988;6.536;2023-05-10T14:47:34;15.30;99.90
52034;DHT22;38045;52.988;6.536;2023-05-10T14:49:59;15.30;99.90
52034;DHT22;38045;52.988;6.536;2023-05-10T14:52:25;15.30;99.90
52034;DHT22;38045;52.988;6.536;2023-05-10T14:54:51;15.30;99.90
52034;DHT22;38045;52.988;6.536;2023-05-10T14:57:16;15.30;99.90
52034;DHT22;38045;52.988;6.536;2023-05-10T14:59:42;15.40;99.90
52034;DHT22;38045;52.988;6.536;2023-05-10T15:02:08;15.40;99.90
52034;DHT22;38045;52.988;6.536;2023-05-10T15:04:33;15.50;99.90
52034;DHT22;38045;52.988;6.536;2023-05-10T15:06:59;15.60;99.90
52034;DHT22;38045;52.988;6.536;2023-05-10T15:09:25;15.60;99.90
52034;DHT22;38045;52.988;6.536;2023-05-10T15:11:54;15.60;99.90
52034;DHT22;38045;52.988;6.536;2023-05-10T15:14:20;15.60;99.90
52034;DHT22;38045;52.988;6.536;2023-05-10T15:16:45;15.70;99.90
52034;DHT22;38045;52.988;6.536;2023-05-10T15:19:11;15.80;99.90
52034;DHT22;38045;52.988;6.536;2023-05-10T15:21:37;15.90;99.90
52034;DHT22;38045;52.988;6.536;2023-05-10T15:24:07;15.90;99.90
52034;DHT22;38045;52.988;6.536;2023-05-10T15:26:33;16.00;99.90
52034;DHT22;38045;52.988;6.536;2023-05-10T15:28:58;16.00;99.90
52034;DHT22;38045;52.988;6.536;2023-05-10T15:31:24;16.10;99.90
52034;DHT22;38045;52.988;6.536;2023-05-10T15:33:49;16.10;99.90
52034;DHT22;38045;52.988;6.536;2023-05-10T15:36:15;16.20;99.90
52034;DHT22;38045;52.988;6.536;2023-05-10T15:38:43;16.20;99.90
52034;DHT22;38045;52.988;6.536;2023-05-10T15:41:08;16.20;99.90
52034;DHT22;38045;52.988;6.536;2023-05-10T15:43:34;16.30;99.90
52034;DHT22;38045;52.988;6.536;2023-05-10T15:46:00;16.30;99.90
52034;DHT22;38045;52.988;6.536;2023-05-10T15:48:25;16.20;99.90
52034;DHT22;38045;52.988;6.536;2023-05-10T15:50:51;16.40;99.90
52034;DHT22;38045;52.988;6.536;2023-05-10T15:53:16;16.30;99.90